createdAt,value
2019-04-27T00:00:48.733Z,854.91
2019-04-27T00:01:48.669Z,854.93
2019-04-27T00:02:48.468Z,854.97
2019-04-27T00:03:48.333Z,854.98
2019-04-27T00:04:48.752Z,854.98
2019-04-27T00:05:48.074Z,854.88
2019-04-27T00:06:47.937Z,854.89
2019-04-27T00:07:51.367Z,854.89
2019-04-27T00:08:47.673Z,854.89
2019-04-27T00:09:51.252Z,854.87
2019-04-27T00:10:47.406Z,854.88
2019-04-27T00:11:47.275Z,854.85
2019-04-27T00:12:47.141Z,854.83
2019-04-27T00:13:47.014Z,854.83
2019-04-27T00:14:48.399Z,854.82
2019-04-27T00:15:46.747Z,854.83
2019-04-27T00:16:50.490Z,854.83
2019-04-27T00:17:49.427Z,854.85
2019-04-27T00:18:49.866Z,854.85
2019-04-27T00:19:46.216Z,854.86
2019-04-27T00:20:46.084Z,854.88
2019-04-27T00:21:45.950Z,854.86
2019-04-27T00:22:45.818Z,854.84
2019-04-27T00:23:45.691Z,854.85
2019-04-27T00:24:45.555Z,854.83
2019-04-27T00:25:45.422Z,854.80
2019-04-27T00:26:45.532Z,854.88
2019-04-27T00:27:45.156Z,854.90
2019-04-27T00:28:45.025Z,854.89
2019-04-27T00:29:44.892Z,854.91
2019-04-27T00:30:44.760Z,854.93
2019-04-27T00:31:44.626Z,854.85
2019-04-27T00:32:44.499Z,854.86
2019-04-27T00:33:44.361Z,854.88
2019-04-27T00:34:44.230Z,854.88
2019-04-27T00:35:44.097Z,854.88
2019-04-27T00:36:43.963Z,854.89
2019-04-27T00:37:44.954Z,854.90
2019-04-27T00:38:43.697Z,854.86
2019-04-27T00:39:43.566Z,854.87
2019-04-27T00:40:43.705Z,854.87
2019-04-27T00:41:43.300Z,854.87
2019-04-27T00:42:44.093Z,854.86
2019-04-27T00:43:44.415Z,854.86
2019-04-27T00:44:43.069Z,854.80
2019-04-27T00:45:43.696Z,854.85
2019-04-27T00:46:43.154Z,854.87
2019-04-27T00:47:54.683Z,854.84
2019-04-27T00:48:43.284Z,854.82
2019-04-27T00:49:44.217Z,854.85
2019-04-27T00:50:43.792Z,854.81
2019-04-27T00:51:43.288Z,854.79
2019-04-27T00:52:42.978Z,854.83
2019-04-27T00:53:43.409Z,854.80
2019-04-27T00:54:41.574Z,854.82
2019-04-27T00:55:41.442Z,854.76
2019-04-27T00:56:42.893Z,854.75
2019-04-27T00:57:41.185Z,854.73
2019-04-27T00:58:41.045Z,854.72
2019-04-27T00:59:40.911Z,854.72
2019-04-27T01:00:40.779Z,854.72
2019-04-27T01:01:40.645Z,854.68
2019-04-27T01:02:40.515Z,854.68
2019-04-27T01:03:40.380Z,854.67
2019-04-27T01:04:40.246Z,854.67
2019-04-27T01:05:40.114Z,854.67
2019-04-27T01:06:39.981Z,854.69
2019-04-27T01:07:39.847Z,854.74
2019-04-27T01:08:39.720Z,854.71
2019-04-27T01:09:39.582Z,854.72
2019-04-27T01:10:39.450Z,854.69
2019-04-27T01:11:39.315Z,854.69
2019-04-27T01:12:39.186Z,854.69
2019-04-27T01:13:39.060Z,854.73
2019-04-27T01:14:38.919Z,854.78
2019-04-27T01:15:38.787Z,854.76
2019-04-27T01:16:39.215Z,854.75
2019-04-27T01:17:39.091Z,854.72
2019-04-27T01:18:38.815Z,854.69
2019-04-27T01:19:39.249Z,854.74
2019-04-27T01:20:38.811Z,854.72
2019-04-27T01:21:39.558Z,854.72
2019-04-27T01:22:39.194Z,854.71
2019-04-27T01:23:38.500Z,854.74
2019-04-27T01:24:39.103Z,854.72
2019-04-27T01:25:38.817Z,854.70
2019-04-27T01:26:38.771Z,854.72
2019-04-27T01:27:37.197Z,854.67
2019-04-27T01:28:38.813Z,854.65
2019-04-27T01:29:36.936Z,854.63
2019-04-27T01:30:36.799Z,854.65
2019-04-27T01:31:36.667Z,854.64
2019-04-27T01:32:36.555Z,854.67
2019-04-27T01:33:36.406Z,854.66
2019-04-27T01:34:36.268Z,854.63
2019-04-27T01:35:36.137Z,854.59
2019-04-27T01:36:36.006Z,854.58
2019-04-27T01:37:35.872Z,854.57
2019-04-27T01:38:35.740Z,854.57
2019-04-27T01:39:35.608Z,854.54
2019-04-27T01:40:35.473Z,854.56
2019-04-27T01:41:35.341Z,854.57
2019-04-27T01:42:35.209Z,854.58
2019-04-27T01:43:35.080Z,854.54
2019-04-27T01:44:34.945Z,854.50
2019-04-27T01:45:34.813Z,854.50
2019-04-27T01:46:34.680Z,854.52
2019-04-27T01:47:34.547Z,854.56
2019-04-27T01:48:34.415Z,854.54
2019-04-27T01:49:34.281Z,854.50
2019-04-27T01:50:34.149Z,854.54
2019-04-27T01:51:34.019Z,854.54
2019-04-27T01:52:33.884Z,854.53
2019-04-27T01:53:33.754Z,854.55
2019-04-27T01:54:33.618Z,854.55
2019-04-27T01:55:33.488Z,854.57
2019-04-27T01:56:33.354Z,854.53
2019-04-27T01:57:33.220Z,854.50
2019-04-27T01:58:33.088Z,854.50
2019-04-27T01:59:32.957Z,854.53
2019-04-27T02:00:32.822Z,854.52
2019-04-27T02:01:32.692Z,854.50
2019-04-27T02:02:32.558Z,854.48
2019-04-27T02:03:33.336Z,854.52
2019-04-27T02:04:32.291Z,854.54
2019-04-27T02:05:32.159Z,854.55
2019-04-27T02:06:32.025Z,854.57
2019-04-27T02:07:31.892Z,854.52
2019-04-27T02:08:31.760Z,854.52
2019-04-27T02:09:31.627Z,854.56
2019-04-27T02:10:31.493Z,854.51
2019-04-27T02:11:31.360Z,854.53
2019-04-27T02:12:31.486Z,854.49
2019-04-27T02:13:31.094Z,854.50
2019-04-27T02:14:30.961Z,854.49
2019-04-27T02:15:30.829Z,854.44
2019-04-27T02:16:30.731Z,854.44
2019-04-27T02:17:30.562Z,854.51
2019-04-27T02:18:37.566Z,854.48
2019-04-27T02:19:30.297Z,854.50
2019-04-27T02:20:30.229Z,854.49
2019-04-27T02:21:30.032Z,854.48
2019-04-27T02:22:29.898Z,854.45
2019-04-27T02:23:29.767Z,854.47
2019-04-27T02:24:29.634Z,854.43
2019-04-27T02:25:29.564Z,854.44
2019-04-27T02:26:29.839Z,854.43
2019-04-27T02:27:29.236Z,854.46
2019-04-27T02:28:29.520Z,854.44
2019-04-27T02:29:29.166Z,854.41
2019-04-27T02:30:30.621Z,854.42
2019-04-27T02:31:29.489Z,854.38
2019-04-27T02:32:29.141Z,854.42
2019-04-27T02:33:30.236Z,854.38
2019-04-27T02:34:30.169Z,854.44
2019-04-27T02:35:30.001Z,854.45
2019-04-27T02:36:30.353Z,854.43
2019-04-27T02:37:30.432Z,854.42
2019-04-27T02:38:30.282Z,854.45
2019-04-27T02:39:29.627Z,854.45
2019-04-27T02:40:27.509Z,854.46
2019-04-27T02:41:29.608Z,854.48
2019-04-27T02:42:29.620Z,854.50
2019-04-27T02:43:29.364Z,854.51
2019-04-27T02:44:26.982Z,854.55
2019-04-27T02:45:26.849Z,854.54
2019-04-27T02:46:29.409Z,854.56
2019-04-27T02:47:26.591Z,854.52
2019-04-27T02:48:26.452Z,854.57
2019-04-27T02:49:26.317Z,854.58
2019-04-27T02:50:26.186Z,854.61
2019-04-27T02:51:26.055Z,854.56
2019-04-27T02:52:25.920Z,854.54
2019-04-27T02:53:25.788Z,854.57
2019-04-27T02:54:25.655Z,854.58
2019-04-27T02:55:25.527Z,854.55
2019-04-27T02:56:25.399Z,854.60
2019-04-27T02:57:25.261Z,854.63
2019-04-27T02:58:25.131Z,854.65
2019-04-27T02:59:24.996Z,854.68
2019-04-27T03:00:24.865Z,854.74
2019-04-27T03:01:24.731Z,854.77
2019-04-27T03:02:24.602Z,854.75
2019-04-27T03:03:24.471Z,854.73
2019-04-27T03:04:24.335Z,854.70
2019-04-27T03:05:24.203Z,854.70
2019-04-27T03:06:24.070Z,854.70
2019-04-27T03:07:23.937Z,854.70
2019-04-27T03:08:23.829Z,854.72
2019-04-27T03:09:23.680Z,854.74
2019-04-27T03:10:23.543Z,854.73
2019-04-27T03:11:23.697Z,854.75
2019-04-27T03:12:23.276Z,854.75
2019-04-27T03:13:23.143Z,854.74
2019-04-27T03:14:32.513Z,854.78
2019-04-27T03:15:23.486Z,854.78
2019-04-27T03:16:22.746Z,854.76
2019-04-27T03:17:22.991Z,854.80
2019-04-27T03:18:22.485Z,854.78
2019-04-27T03:19:22.350Z,854.76
2019-04-27T03:20:22.218Z,854.77
2019-04-27T03:21:22.085Z,854.75
2019-04-27T03:22:21.960Z,854.79
2019-04-27T03:23:21.828Z,854.77
2019-04-27T03:24:23.011Z,854.76
2019-04-27T03:25:21.556Z,854.73
2019-04-27T03:26:21.423Z,854.78
2019-04-27T03:27:21.294Z,854.77
2019-04-27T03:28:21.161Z,854.79
2019-04-27T03:29:22.985Z,854.78
2019-04-27T03:30:22.819Z,854.81
2019-04-27T03:31:21.643Z,854.81
2019-04-27T03:32:22.614Z,854.84
2019-04-27T03:33:22.277Z,854.81
2019-04-27T03:34:22.189Z,854.81
2019-04-27T03:35:22.746Z,854.83
2019-04-27T03:36:21.414Z,854.79
2019-04-27T03:37:20.347Z,854.80
2019-04-27T03:38:19.913Z,854.80
2019-04-27T03:39:20.091Z,854.75
2019-04-27T03:40:20.432Z,854.79
2019-04-27T03:41:19.457Z,854.82
2019-04-27T03:42:20.726Z,854.82
2019-04-27T03:43:20.065Z,854.82
2019-04-27T03:44:19.388Z,854.79
2019-04-27T03:45:20.046Z,854.81
2019-04-27T03:46:20.478Z,854.83
2019-04-27T03:47:19.804Z,854.82
2019-04-27T03:48:20.416Z,854.80
2019-04-27T03:49:29.392Z,854.81
2019-04-27T03:50:20.362Z,854.84
2019-04-27T03:51:19.979Z,854.84
2019-04-27T03:52:19.757Z,854.88
2019-04-27T03:53:20.539Z,854.85
2019-04-27T03:54:19.401Z,854.90
2019-04-27T03:55:19.740Z,854.90
2019-04-27T03:56:18.042Z,854.93
2019-04-27T03:57:19.856Z,854.94
2019-04-27T03:58:17.212Z,854.96
2019-04-27T03:59:19.493Z,854.93
2019-04-27T04:00:19.666Z,854.96
2019-04-27T04:01:16.808Z,854.92
2019-04-27T04:02:16.676Z,854.91
2019-04-27T04:03:16.544Z,854.93
2019-04-27T04:04:16.418Z,854.94
2019-04-27T04:05:16.282Z,854.91
2019-04-27T04:06:16.146Z,854.99
2019-04-27T04:07:16.025Z,854.93
2019-04-27T04:08:15.888Z,854.94
2019-04-27T04:09:15.753Z,854.93
2019-04-27T04:10:15.621Z,854.97
2019-04-27T04:11:15.492Z,854.96
2019-04-27T04:12:15.357Z,854.96
2019-04-27T04:13:15.229Z,854.99
2019-04-27T04:14:15.091Z,854.97
2019-04-27T04:15:14.963Z,854.93
2019-04-27T04:16:14.830Z,854.93
2019-04-27T04:17:14.697Z,854.97
2019-04-27T04:18:14.566Z,854.96
2019-04-27T04:19:14.435Z,854.95
2019-04-27T04:20:14.303Z,855.00
2019-04-27T04:21:14.175Z,855.00
2019-04-27T04:22:14.037Z,854.99
2019-04-27T04:23:13.905Z,855.06
2019-04-27T04:24:13.788Z,855.06
2019-04-27T04:25:13.649Z,855.02
2019-04-27T04:26:13.509Z,855.04
2019-04-27T04:27:13.378Z,855.08
2019-04-27T04:28:13.247Z,855.06
2019-04-27T04:29:13.119Z,855.10
2019-04-27T04:30:13.002Z,855.06
2019-04-27T04:31:13.829Z,855.04
2019-04-27T04:32:12.720Z,854.99
2019-04-27T04:33:12.593Z,855.03
2019-04-27T04:34:12.466Z,855.06
2019-04-27T04:35:12.323Z,855.05
2019-04-27T04:36:12.192Z,855.08
2019-04-27T04:37:12.057Z,855.04
2019-04-27T04:38:11.929Z,855.09
2019-04-27T04:39:12.483Z,855.13
2019-04-27T04:40:11.666Z,855.06
2019-04-27T04:41:11.533Z,855.06
2019-04-27T04:42:11.408Z,855.09
2019-04-27T04:43:11.267Z,855.08
2019-04-27T04:44:12.524Z,855.07
2019-04-27T04:45:11.001Z,855.06
2019-04-27T04:46:13.246Z,855.07
2019-04-27T04:47:10.743Z,855.10
2019-04-27T04:48:10.608Z,855.10
2019-04-27T04:49:10.474Z,855.07
2019-04-27T04:50:14.636Z,855.05
2019-04-27T04:51:10.332Z,855.10
2019-04-27T04:52:10.079Z,855.11
2019-04-27T04:53:12.534Z,855.12
2019-04-27T04:54:09.813Z,855.13
2019-04-27T04:55:10.184Z,855.13
2019-04-27T04:56:10.720Z,855.08
2019-04-27T04:57:09.470Z,855.10
2019-04-27T04:58:09.469Z,855.10
2019-04-27T04:59:10.123Z,855.08
2019-04-27T05:00:09.825Z,855.10
2019-04-27T05:01:09.890Z,855.10
2019-04-27T05:02:10.623Z,855.09
2019-04-27T05:03:09.427Z,855.09
2019-04-27T05:04:09.119Z,855.07
2019-04-27T05:05:09.364Z,855.05
2019-04-27T05:06:08.811Z,855.08
2019-04-27T05:07:09.221Z,855.11
2019-04-27T05:08:09.076Z,855.08
2019-04-27T05:09:09.260Z,855.10
2019-04-27T05:10:09.094Z,855.12
2019-04-27T05:11:09.493Z,855.14
2019-04-27T05:12:08.891Z,855.15
2019-04-27T05:13:09.165Z,855.15
2019-04-27T05:14:07.178Z,855.13
2019-04-27T05:15:08.970Z,855.08
2019-04-27T05:16:08.820Z,855.11
2019-04-27T05:17:06.780Z,855.06
2019-04-27T05:18:06.649Z,855.06
2019-04-27T05:19:06.517Z,855.07
2019-04-27T05:20:06.386Z,855.03
2019-04-27T05:21:06.251Z,855.04
2019-04-27T05:22:06.121Z,855.01
2019-04-27T05:23:05.990Z,855.01
2019-04-27T05:24:05.859Z,855.01
2019-04-27T05:25:05.725Z,855.00
2019-04-27T05:26:05.595Z,854.98
2019-04-27T05:27:05.462Z,854.96
2019-04-27T05:28:05.332Z,854.96
2019-04-27T05:29:05.200Z,855.00
2019-04-27T05:30:05.066Z,854.99
2019-04-27T05:31:04.934Z,855.01
2019-04-27T05:32:04.800Z,854.98
2019-04-27T05:33:04.782Z,854.96
2019-04-27T05:34:06.767Z,854.99
2019-04-27T05:35:04.405Z,855.01
2019-04-27T05:36:04.271Z,855.02
2019-04-27T05:37:04.137Z,855.00
2019-04-27T05:38:07.402Z,855.02
2019-04-27T05:39:03.874Z,855.07
2019-04-27T05:40:03.740Z,855.12
2019-04-27T05:41:03.608Z,855.15
2019-04-27T05:42:03.480Z,855.18
2019-04-27T05:43:03.347Z,855.21
2019-04-27T05:44:07.496Z,855.21
2019-04-27T05:45:03.082Z,855.22
2019-04-27T05:46:02.947Z,855.26
2019-04-27T05:47:05.345Z,855.26
2019-04-27T05:48:02.684Z,855.25
2019-04-27T05:49:06.176Z,855.26
2019-04-27T05:50:02.420Z,855.22
2019-04-27T05:51:02.292Z,855.20
2019-04-27T05:52:02.159Z,855.20
2019-04-27T05:53:02.024Z,855.24
2019-04-27T05:54:01.896Z,855.22
2019-04-27T05:55:01.773Z,855.28
2019-04-27T05:56:01.630Z,855.27
2019-04-27T05:57:01.500Z,855.29
2019-04-27T05:58:01.370Z,855.28
2019-04-27T05:59:01.240Z,855.27
2019-04-27T06:00:02.207Z,855.25
2019-04-27T06:01:00.979Z,855.23
2019-04-27T06:02:00.845Z,855.21
2019-04-27T06:03:00.716Z,855.19
2019-04-27T06:04:00.581Z,855.21
2019-04-27T06:05:00.455Z,855.17
2019-04-27T06:06:01.757Z,855.14
2019-04-27T06:07:01.005Z,855.12
2019-04-27T06:08:00.058Z,855.13
2019-04-27T06:08:59.929Z,855.15
2019-04-27T06:10:00.089Z,855.13
2019-04-27T06:10:59.661Z,855.14
2019-04-27T06:11:59.531Z,855.14
2019-04-27T06:12:59.830Z,855.14
2019-04-27T06:13:59.425Z,855.08
2019-04-27T06:14:59.826Z,855.10
2019-04-27T06:15:59.343Z,855.09
2019-04-27T06:16:59.614Z,855.08
2019-04-27T06:17:59.655Z,855.10
2019-04-27T06:18:59.472Z,855.08
2019-04-27T06:19:59.436Z,855.10
2019-04-27T06:20:59.830Z,855.11
2019-04-27T06:22:01.038Z,855.11
2019-04-27T06:22:58.848Z,855.11
2019-04-27T06:23:58.878Z,855.11
2019-04-27T06:24:59.705Z,855.12
2019-04-27T06:25:57.845Z,855.14
2019-04-27T06:26:59.512Z,855.14
2019-04-27T06:27:59.132Z,855.15
2019-04-27T06:28:57.299Z,855.13
2019-04-27T06:29:59.144Z,855.18
2019-04-27T06:30:57.036Z,855.19
2019-04-27T06:31:56.905Z,855.18
2019-04-27T06:32:56.770Z,855.21
2019-04-27T06:33:56.640Z,855.22
2019-04-27T06:34:56.526Z,855.22
2019-04-27T06:35:56.381Z,855.19
2019-04-27T06:36:56.245Z,855.21
2019-04-27T06:37:56.114Z,855.21
2019-04-27T06:38:55.986Z,855.17
2019-04-27T06:39:55.857Z,855.19
2019-04-27T06:40:55.719Z,855.19
2019-04-27T06:41:55.591Z,855.23
2019-04-27T06:42:55.463Z,855.22
2019-04-27T06:43:55.331Z,855.20
2019-04-27T06:44:55.200Z,855.14
2019-04-27T06:45:55.066Z,855.15
2019-04-27T06:46:54.934Z,855.18
2019-04-27T06:47:54.812Z,855.18
2019-04-27T06:48:54.674Z,855.21
2019-04-27T06:49:54.540Z,855.24
2019-04-27T06:51:02.733Z,855.25
2019-04-27T06:51:54.282Z,855.27
2019-04-27T06:52:54.151Z,855.19
2019-04-27T06:53:54.024Z,855.20
2019-04-27T06:54:53.890Z,855.22
2019-04-27T06:55:53.759Z,855.17
2019-04-27T06:56:53.629Z,855.21
2019-04-27T06:57:53.499Z,855.19
2019-04-27T06:58:53.369Z,855.21
2019-04-27T06:59:53.236Z,855.20
2019-04-27T07:00:53.113Z,855.19
2019-04-27T07:01:52.978Z,855.20
2019-04-27T07:02:55.252Z,855.23
2019-04-27T07:03:52.717Z,855.24
2019-04-27T07:04:52.586Z,855.21
2019-04-27T07:05:52.456Z,855.26
2019-04-27T07:06:55.960Z,855.25
2019-04-27T07:07:52.201Z,855.25
2019-04-27T07:08:52.066Z,855.22
2019-04-27T07:09:51.942Z,855.24
2019-04-27T07:10:51.807Z,855.22
2019-04-27T07:11:51.679Z,855.21
2019-04-27T07:12:51.550Z,855.25
2019-04-27T07:13:51.422Z,855.21
2019-04-27T07:14:54.554Z,855.25
2019-04-27T07:15:51.178Z,855.22
2019-04-27T07:16:51.030Z,855.24
2019-04-27T07:17:50.903Z,855.24
2019-04-27T07:18:50.781Z,855.24
2019-04-27T07:19:50.643Z,855.17
2019-04-27T07:20:50.514Z,855.17
2019-04-27T07:21:50.388Z,855.14
2019-04-27T07:22:50.263Z,855.12
2019-04-27T07:23:50.129Z,855.10
2019-04-27T07:24:49.999Z,855.07
2019-04-27T07:25:49.868Z,855.06
2019-04-27T07:26:49.741Z,855.09
2019-04-27T07:27:49.613Z,855.08
2019-04-27T07:28:49.484Z,855.05
2019-04-27T07:29:49.669Z,855.04
2019-04-27T07:30:49.226Z,855.11
2019-04-27T07:31:49.600Z,855.06
2019-04-27T07:32:49.029Z,855.08
2019-04-27T07:33:49.423Z,855.05
2019-04-27T07:34:49.783Z,855.00
2019-04-27T07:35:49.074Z,855.01
2019-04-27T07:36:49.119Z,855.04
2019-04-27T07:37:48.817Z,855.01
2019-04-27T07:38:48.627Z,855.06
2019-04-27T07:39:49.175Z,855.03
2019-04-27T07:40:48.872Z,855.05
2019-04-27T07:41:48.786Z,855.04
2019-04-27T07:42:49.536Z,855.03
2019-04-27T07:43:49.342Z,855.02
2019-04-27T07:44:47.423Z,855.00
2019-04-27T07:45:47.293Z,855.06
2019-04-27T07:46:47.166Z,855.04
2019-04-27T07:47:47.039Z,855.02
2019-04-27T07:48:46.907Z,855.03
2019-04-27T07:49:46.778Z,855.03
2019-04-27T07:50:46.653Z,854.98
2019-04-27T07:51:46.523Z,855.03
2019-04-27T07:52:46.393Z,855.03
2019-04-27T07:53:46.266Z,855.03
2019-04-27T07:54:46.135Z,854.99
2019-04-27T07:55:46.008Z,855.02
2019-04-27T07:56:45.878Z,855.00
2019-04-27T07:57:45.752Z,855.00
2019-04-27T07:58:45.620Z,854.96
2019-04-27T07:59:45.494Z,854.97
2019-04-27T08:00:45.364Z,854.96
2019-04-27T08:01:45.237Z,854.96
2019-04-27T08:02:45.110Z,854.94
2019-04-27T08:03:44.982Z,854.96
2019-04-27T08:04:47.745Z,854.96
2019-04-27T08:05:44.725Z,855.00
2019-04-27T08:06:44.599Z,854.97
2019-04-27T08:07:44.468Z,855.00
2019-04-27T08:08:44.340Z,854.96
2019-04-27T08:09:44.213Z,854.95
2019-04-27T08:10:44.086Z,854.95
2019-04-27T08:11:43.956Z,854.95
2019-04-27T08:12:43.827Z,854.96
2019-04-27T08:13:43.698Z,854.96
2019-04-27T08:14:43.570Z,854.98
2019-04-27T08:15:43.446Z,854.98
2019-04-27T08:16:43.317Z,855.00
2019-04-27T08:17:43.185Z,855.02
2019-04-27T08:18:43.059Z,854.99
2019-04-27T08:19:42.928Z,855.03
2019-04-27T08:20:42.801Z,855.02
2019-04-27T08:21:44.318Z,855.01
2019-04-27T08:22:42.547Z,855.07
2019-04-27T08:23:42.423Z,855.03
2019-04-27T08:24:42.290Z,855.04
2019-04-27T08:25:42.164Z,855.02
2019-04-27T08:26:42.035Z,855.04
2019-04-27T08:27:41.904Z,855.02
2019-04-27T08:28:41.775Z,854.99
2019-04-27T08:29:41.651Z,855.03
2019-04-27T08:30:41.522Z,855.06
2019-04-27T08:31:41.393Z,855.04
2019-04-27T08:32:41.513Z,855.04
2019-04-27T08:33:41.133Z,855.04
2019-04-27T08:34:41.016Z,855.03
2019-04-27T08:35:40.881Z,855.03
2019-04-27T08:36:40.751Z,855.07
2019-04-27T08:37:40.625Z,855.04
2019-04-27T08:38:40.502Z,855.08
2019-04-27T08:39:40.365Z,855.07
2019-04-27T08:40:40.242Z,855.12
2019-04-27T08:41:40.109Z,855.07
2019-04-27T08:42:39.981Z,855.11
2019-04-27T08:43:39.854Z,855.10
2019-04-27T08:44:39.890Z,855.09
2019-04-27T08:45:39.598Z,855.05
2019-04-27T08:46:39.468Z,855.05
2019-04-27T08:47:41.692Z,855.08
2019-04-27T08:48:39.467Z,855.07
2019-04-27T08:49:39.529Z,855.06
2019-04-27T08:50:41.772Z,855.06
2019-04-27T08:51:39.192Z,855.03
2019-04-27T08:52:41.515Z,855.09
2019-04-27T08:53:39.791Z,855.06
2019-04-27T08:54:39.392Z,855.06
2019-04-27T08:55:39.491Z,855.07
2019-04-27T08:56:39.632Z,855.07
2019-04-27T08:57:38.833Z,855.07
2019-04-27T08:58:38.601Z,855.07
2019-04-27T08:59:39.302Z,855.08
2019-04-27T09:00:39.088Z,855.10
2019-04-27T09:01:37.547Z,855.06
2019-04-27T09:02:44.411Z,855.05
2019-04-27T09:03:37.294Z,855.05
2019-04-27T09:04:37.166Z,855.08
2019-04-27T09:05:38.865Z,855.08
2019-04-27T09:06:39.388Z,855.11
2019-04-27T09:07:36.782Z,855.07
2019-04-27T09:08:36.652Z,855.11
2019-04-27T09:09:36.527Z,855.11
2019-04-27T09:10:36.398Z,855.07
2019-04-27T09:11:36.267Z,855.11
2019-04-27T09:12:36.141Z,855.11
2019-04-27T09:13:36.013Z,855.10
2019-04-27T09:14:35.890Z,855.10
2019-04-27T09:15:35.758Z,855.07
2019-04-27T09:16:35.627Z,855.07
2019-04-27T09:17:35.499Z,855.08
2019-04-27T09:18:35.375Z,855.08
2019-04-27T09:19:35.243Z,855.05
2019-04-27T09:20:35.116Z,855.03
2019-04-27T09:21:35.005Z,855.05
2019-04-27T09:22:34.858Z,855.07
2019-04-27T09:23:34.736Z,855.08
2019-04-27T09:24:34.631Z,855.10
2019-04-27T09:25:34.478Z,855.09
2019-04-27T09:26:34.347Z,855.07
2019-04-27T09:27:34.221Z,855.09
2019-04-27T09:28:34.093Z,855.05
2019-04-27T09:29:33.964Z,855.08
2019-04-27T09:30:33.834Z,855.08
2019-04-27T09:31:33.708Z,855.07
2019-04-27T09:32:33.578Z,855.10
2019-04-27T09:33:33.450Z,855.14
2019-04-27T09:34:33.321Z,855.16
2019-04-27T09:35:33.191Z,855.13
2019-04-27T09:36:33.060Z,855.16
2019-04-27T09:37:32.935Z,855.17
2019-04-27T09:38:32.817Z,855.16
2019-04-27T09:39:32.679Z,855.17
2019-04-27T09:40:32.550Z,855.19
2019-04-27T09:41:32.441Z,855.16
2019-04-27T09:42:32.294Z,855.15
2019-04-27T09:43:32.168Z,855.12
2019-04-27T09:44:32.037Z,855.13
2019-04-27T09:45:31.908Z,855.14
2019-04-27T09:46:31.782Z,855.12
2019-04-27T09:47:31.653Z,855.11
2019-04-27T09:48:31.524Z,855.14
2019-04-27T09:49:31.394Z,855.08
2019-04-27T09:50:31.263Z,855.05
2019-04-27T09:51:31.139Z,855.07
2019-04-27T09:52:31.010Z,855.04
2019-04-27T09:53:30.896Z,855.05
2019-04-27T09:54:30.752Z,855.05
2019-04-27T09:55:30.622Z,855.03
2019-04-27T09:56:30.497Z,855.04
2019-04-27T09:57:30.370Z,855.00
2019-04-27T09:58:30.239Z,855.01
2019-04-27T09:59:30.111Z,854.98
2019-04-27T10:00:29.984Z,855.01
2019-04-27T10:01:29.855Z,855.01
2019-04-27T10:02:29.727Z,855.02
2019-04-27T10:03:29.599Z,854.99
2019-04-27T10:04:29.468Z,855.02
2019-04-27T10:05:29.343Z,854.95
2019-04-27T10:06:30.069Z,855.01
2019-04-27T10:07:29.089Z,854.99
2019-04-27T10:08:28.961Z,855.03
2019-04-27T10:09:29.672Z,855.00
2019-04-27T10:10:28.709Z,854.99
2019-04-27T10:11:28.577Z,855.01
2019-04-27T10:12:28.449Z,855.00
2019-04-27T10:13:28.320Z,854.94
2019-04-27T10:14:28.193Z,854.95
2019-04-27T10:15:28.069Z,854.95
2019-04-27T10:16:27.939Z,854.99
2019-04-27T10:17:27.810Z,855.03
2019-04-27T10:18:27.684Z,854.98
2019-04-27T10:19:30.763Z,854.97
2019-04-27T10:20:27.433Z,854.99
2019-04-27T10:21:27.303Z,854.98
2019-04-27T10:22:39.858Z,855.01
2019-04-27T10:23:27.046Z,855.00
2019-04-27T10:24:26.920Z,855.01
2019-04-27T10:25:26.795Z,854.95
2019-04-27T10:26:26.666Z,854.98
2019-04-27T10:27:26.543Z,854.99
2019-04-27T10:28:26.409Z,854.97
2019-04-27T10:29:26.807Z,854.95
2019-04-27T10:30:26.159Z,854.94
2019-04-27T10:31:26.032Z,854.97
2019-04-27T10:32:26.158Z,854.99
2019-04-27T10:33:25.850Z,854.97
2019-04-27T10:34:25.644Z,854.95
2019-04-27T10:35:26.022Z,854.96
2019-04-27T10:36:26.909Z,854.92
2019-04-27T10:37:25.272Z,854.95
2019-04-27T10:38:25.878Z,854.95
2019-04-27T10:39:25.718Z,854.93
2019-04-27T10:40:26.344Z,854.97
2019-04-27T10:41:25.946Z,854.93
2019-04-27T10:42:25.352Z,854.95
2019-04-27T10:43:25.804Z,854.93
2019-04-27T10:44:24.378Z,854.94
2019-04-27T10:45:24.257Z,854.94
2019-04-27T10:46:25.721Z,854.95
2019-04-27T10:47:25.945Z,854.90
2019-04-27T10:48:23.874Z,854.93
2019-04-27T10:49:23.747Z,854.91
2019-04-27T10:50:23.622Z,854.92
2019-04-27T10:51:23.498Z,854.91
2019-04-27T10:52:23.366Z,854.90
2019-04-27T10:53:23.244Z,854.87
2019-04-27T10:54:23.119Z,854.84
2019-04-27T10:55:22.994Z,854.84
2019-04-27T10:56:22.866Z,854.83
2019-04-27T10:57:22.741Z,854.83
2019-04-27T10:58:22.611Z,854.86
2019-04-27T10:59:22.486Z,854.82
2019-04-27T11:00:22.363Z,854.85
2019-04-27T11:01:22.238Z,854.85
2019-04-27T11:02:22.104Z,854.86
2019-04-27T11:03:21.976Z,854.84
2019-04-27T11:04:21.854Z,854.85
2019-04-27T11:05:21.728Z,854.85
2019-04-27T11:06:21.602Z,854.81
2019-04-27T11:07:21.473Z,854.82
2019-04-27T11:08:21.346Z,854.84
2019-04-27T11:09:21.223Z,854.79
2019-04-27T11:10:21.094Z,854.79
2019-04-27T11:11:20.971Z,854.77
2019-04-27T11:12:20.844Z,854.78
2019-04-27T11:13:20.717Z,854.78
2019-04-27T11:14:20.592Z,854.76
2019-04-27T11:15:20.465Z,854.78
2019-04-27T11:16:20.350Z,854.77
2019-04-27T11:17:20.213Z,854.80
2019-04-27T11:18:20.090Z,854.81
2019-04-27T11:19:19.965Z,854.81
2019-04-27T11:20:19.838Z,854.80
2019-04-27T11:21:19.713Z,854.78
2019-04-27T11:22:19.585Z,854.79
2019-04-27T11:23:19.462Z,854.78
2019-04-27T11:24:19.340Z,854.74
2019-04-27T11:25:19.222Z,854.75
2019-04-27T11:26:19.089Z,854.77
2019-04-27T11:27:18.965Z,854.77
2019-04-27T11:28:18.845Z,854.77
2019-04-27T11:29:18.717Z,854.73
2019-04-27T11:30:18.585Z,854.71
2019-04-27T11:31:18.469Z,854.75
2019-04-27T11:32:18.339Z,854.77
2019-04-27T11:33:18.214Z,854.72
2019-04-27T11:34:18.085Z,854.76
2019-04-27T11:35:17.963Z,854.76
2019-04-27T11:36:17.839Z,854.76
2019-04-27T11:37:17.706Z,854.73
2019-04-27T11:38:17.589Z,854.73
2019-04-27T11:39:19.680Z,854.73
2019-04-27T11:40:17.334Z,854.68
2019-04-27T11:41:17.206Z,854.74
2019-04-27T11:42:17.081Z,854.74
2019-04-27T11:43:16.958Z,854.71
2019-04-27T11:44:17.081Z,854.70
2019-04-27T11:45:16.712Z,854.68
2019-04-27T11:46:16.585Z,854.68
2019-04-27T11:47:16.449Z,854.66
2019-04-27T11:48:16.326Z,854.67
2019-04-27T11:49:16.206Z,854.70
2019-04-27T11:50:16.551Z,854.69
2019-04-27T11:51:17.487Z,854.68
2019-04-27T11:52:15.829Z,854.67
2019-04-27T11:53:22.657Z,854.67
2019-04-27T11:54:15.572Z,854.68
2019-04-27T11:55:16.085Z,854.64
2019-04-27T11:56:15.756Z,854.68
2019-04-27T11:57:15.188Z,854.64
2019-04-27T11:58:16.472Z,854.68
2019-04-27T11:59:15.957Z,854.68
2019-04-27T12:00:16.496Z,854.69
2019-04-27T12:01:15.979Z,854.67
2019-04-27T12:02:15.613Z,854.68
2019-04-27T12:03:14.430Z,854.67
2019-04-27T12:04:16.007Z,854.65
2019-04-27T12:05:15.966Z,854.64
2019-04-27T12:06:15.726Z,854.69
2019-04-27T12:07:13.919Z,854.63
2019-04-27T12:08:13.792Z,854.64
2019-04-27T12:09:13.717Z,854.59
2019-04-27T12:10:13.546Z,854.61
2019-04-27T12:11:13.412Z,854.63
2019-04-27T12:12:18.112Z,854.60
2019-04-27T12:13:13.155Z,854.61
2019-04-27T12:14:13.029Z,854.60
2019-04-27T12:15:12.903Z,854.65
2019-04-27T12:16:12.774Z,854.63
2019-04-27T12:17:12.645Z,854.65
2019-04-27T12:18:12.519Z,854.63
2019-04-27T12:19:12.393Z,854.63
2019-04-27T12:20:12.272Z,854.64
2019-04-27T12:21:12.143Z,854.66
2019-04-27T12:22:12.011Z,854.66
2019-04-27T12:23:11.882Z,854.64
2019-04-27T12:24:11.761Z,854.64
2019-04-27T12:25:11.631Z,854.63
2019-04-27T12:26:11.518Z,854.64
2019-04-27T12:27:11.379Z,854.62